Las Perdices, Argentina
Current Conditions -  °F | °C
As of 10:00 AM on Friday 19 Dec 2014 (Local Time) from SAOC Reporting Station
Clear Clear  
Wind Chill: 86°   Ceiling: Unl
Heat Index: 86°   Visibility: 6mi
Dew Point: 57°   Wind: 15mph
Humidity: 37%   Direction: 340°NNW
Pressure: 29.68"   Gusts: NA
Location:  32.7°S, 63.7°W
Report Text: SAOC 191300Z 34013KT CAVOK 30/14 Q1005
Loading
Personal Weather Stations






























Interactive Weather Map New forecast layout! Learn more

10-Day Weather Forecast

Advertisements
Track Severe Weather on mobile